createdAt,value
2023-05-24T00:01:35.581Z,15.88
2023-05-24T00:05:32.887Z,15.97
2023-05-24T00:09:32.449Z,16.00
2023-05-24T00:13:30.433Z,15.97
2023-05-24T00:17:30.704Z,15.90
2023-05-24T00:21:27.985Z,15.83
2023-05-24T00:25:26.558Z,15.77
2023-05-24T00:29:24.298Z,15.75
2023-05-24T00:33:23.444Z,15.73
2023-05-24T00:37:19.945Z,15.71
2023-05-24T00:41:19.612Z,15.62
2023-05-24T00:44:35.487Z,15.55
2023-05-24T00:47:23.673Z,15.45
2023-05-24T00:50:12.649Z,15.39
2023-05-24T00:53:02.532Z,15.33
2023-05-24T00:55:50.415Z,15.29
2023-05-24T00:58:38.155Z,15.29
2023-05-24T01:01:30.482Z,15.27
2023-05-24T01:04:19.969Z,15.23
2023-05-24T01:07:26.198Z,15.22
2023-05-24T01:10:31.864Z,15.20
2023-05-24T01:13:36.317Z,15.20
2023-05-24T01:16:26.324Z,15.19
2023-05-24T01:19:36.886Z,15.21
2023-05-24T01:22:50.204Z,15.25
2023-05-24T01:25:46.454Z,15.28
2023-05-24T01:28:34.763Z,15.30
2023-05-24T01:31:22.456Z,15.26
2023-05-24T01:34:11.383Z,15.28
2023-05-24T01:36:59.985Z,15.26
2023-05-24T01:39:48.032Z,15.24
2023-05-24T01:42:45.695Z,15.23
2023-05-24T01:45:37.747Z,15.15
2023-05-24T01:48:44.439Z,15.11
2023-05-24T01:51:40.053Z,15.11
2023-05-24T01:54:30.241Z,15.11
2023-05-24T01:57:18.914Z,15.06
2023-05-24T02:00:09.231Z,14.99
2023-05-24T02:03:01.863Z,14.97
2023-05-24T02:05:49.956Z,15.00
2023-05-24T02:08:37.965Z,15.02
2023-05-24T02:11:25.774Z,15.05
2023-05-24T02:14:14.044Z,15.14
2023-05-24T02:17:02.196Z,15.13
2023-05-24T02:19:50.154Z,15.14
2023-05-24T02:22:39.026Z,15.12
2023-05-24T02:25:26.974Z,15.06
2023-05-24T02:28:15.540Z,15.05
2023-05-24T02:31:03.733Z,15.13
2023-05-24T02:33:51.442Z,15.23
2023-05-24T02:36:39.376Z,15.30
2023-05-24T02:39:27.604Z,15.35
2023-05-24T02:42:15.897Z,15.35
2023-05-24T02:45:04.268Z,15.32
2023-05-24T02:47:52.293Z,15.26
2023-05-24T02:50:40.561Z,15.25
2023-05-24T02:53:32.142Z,15.17
2023-05-24T02:56:21.472Z,15.25
2023-05-24T02:59:09.319Z,15.23
2023-05-24T03:01:57.050Z,15.34
2023-05-24T03:04:46.189Z,15.40
2023-05-24T03:07:35.286Z,15.44
2023-05-24T03:10:23.372Z,15.49
2023-05-24T03:13:11.431Z,15.53
2023-05-24T03:16:00.298Z,15.57
2023-05-24T03:18:50.675Z,15.62
2023-05-24T03:21:38.864Z,15.74
2023-05-24T03:24:27.022Z,15.98
2023-05-24T03:27:14.820Z,16.18
2023-05-24T03:30:06.153Z,16.34
2023-05-24T03:32:58.190Z,16.53
2023-05-24T03:35:46.440Z,16.78
2023-05-24T03:38:34.593Z,17.03
2023-05-24T03:41:22.582Z,17.24
2023-05-24T03:44:10.313Z,17.34
2023-05-24T03:46:58.011Z,17.44
2023-05-24T03:49:45.969Z,17.60
2023-05-24T03:52:34.896Z,17.82
2023-05-24T03:55:25.127Z,18.08
2023-05-24T03:58:14.198Z,18.33
2023-05-24T04:01:02.069Z,18.62
2023-05-24T04:03:50.771Z,18.92
2023-05-24T04:06:41.411Z,19.14
2023-05-24T04:09:29.653Z,19.35
2023-05-24T04:12:17.855Z,19.44
2023-05-24T04:15:08.654Z,19.56
2023-05-24T04:17:56.651Z,19.68
2023-05-24T04:20:44.744Z,19.79
2023-05-24T04:23:34.455Z,19.98
2023-05-24T04:26:22.431Z,20.24
2023-05-24T04:29:11.532Z,20.36
2023-05-24T04:33:03.958Z,20.66
2023-05-24T04:35:53.640Z,20.85
2023-05-24T04:38:42.130Z,21.14
2023-05-24T04:41:36.281Z,21.20
2023-05-24T04:44:24.875Z,21.36
2023-05-24T04:47:14.122Z,21.57
2023-05-24T04:50:02.750Z,21.76
2023-05-24T04:52:51.671Z,22.05
2023-05-24T04:55:41.706Z,22.39
2023-05-24T04:58:30.211Z,22.59
2023-05-24T05:01:19.261Z,22.70
2023-05-24T05:04:08.092Z,22.68
2023-05-24T05:06:57.562Z,22.80
2023-05-24T05:09:46.420Z,22.97
2023-05-24T05:12:34.983Z,23.02
2023-05-24T05:15:23.891Z,23.16
2023-05-24T05:18:12.558Z,23.38
2023-05-24T05:21:01.592Z,23.59
2023-05-24T05:23:50.211Z,23.72
2023-05-24T05:26:39.198Z,23.94
2023-05-24T05:29:27.823Z,24.17
2023-05-24T05:32:16.594Z,24.41
2023-05-24T05:35:05.769Z,24.64
2023-05-24T05:37:54.453Z,24.83
2023-05-24T05:40:43.221Z,25.03
2023-05-24T05:43:31.987Z,25.14
2023-05-24T05:46:22.463Z,25.27
2023-05-24T05:49:10.955Z,25.43
2023-05-24T05:51:59.576Z,25.47
2023-05-24T05:54:48.264Z,25.56
2023-05-24T05:57:37.144Z,25.63
2023-05-24T06:00:25.928Z,25.72
2023-05-24T06:03:14.641Z,25.93
2023-05-24T06:06:03.386Z,26.04
2023-05-24T06:08:51.968Z,26.13
2023-05-24T06:11:44.994Z,26.24
2023-05-24T06:14:34.680Z,26.52
2023-05-24T06:17:24.646Z,26.79
2023-05-24T06:20:16.090Z,26.84
2023-05-24T06:23:05.386Z,27.07
2023-05-24T06:25:54.152Z,27.31
2023-05-24T06:28:42.873Z,27.47
2023-05-24T06:31:31.471Z,27.70
2023-05-24T06:34:23.614Z,27.86
2023-05-24T06:37:15.527Z,27.91
2023-05-24T06:40:07.124Z,28.07
2023-05-24T06:42:55.262Z,28.27
2023-05-24T06:45:43.879Z,28.36
2023-05-24T06:48:32.408Z,28.42
2023-05-24T06:51:21.297Z,28.44
2023-05-24T06:54:09.980Z,28.33
2023-05-24T06:56:59.208Z,28.38
2023-05-24T06:59:48.061Z,28.47
2023-05-24T07:02:36.722Z,28.49
2023-05-24T07:05:25.319Z,28.51
2023-05-24T07:08:14.127Z,28.55
2023-05-24T07:11:03.469Z,28.64
2023-05-24T07:13:52.090Z,28.76
2023-05-24T07:16:40.705Z,29.00
2023-05-24T07:19:29.959Z,29.28
2023-05-24T07:22:18.646Z,29.35
2023-05-24T07:25:07.655Z,29.37
2023-05-24T07:27:56.155Z,29.60
2023-05-24T07:30:45.643Z,29.86
2023-05-24T07:33:35.093Z,30.03
2023-05-24T07:36:26.136Z,30.28
2023-05-24T07:39:16.216Z,30.25
2023-05-24T07:42:04.751Z,30.17
2023-05-24T07:44:53.245Z,29.92
2023-05-24T07:47:41.998Z,29.63
2023-05-24T07:50:30.564Z,29.50
2023-05-24T07:53:19.863Z,29.49
2023-05-24T07:56:08.468Z,29.62
2023-05-24T07:59:03.581Z,29.59
2023-05-24T08:01:52.732Z,29.75
2023-05-24T08:04:41.496Z,30.13
2023-05-24T08:07:30.259Z,30.24
2023-05-24T08:10:19.072Z,30.22
2023-05-24T08:13:07.806Z,30.15
2023-05-24T08:15:56.755Z,30.22
2023-05-24T08:18:45.331Z,30.16
2023-05-24T08:21:34.143Z,29.82
2023-05-24T08:24:22.896Z,29.77
2023-05-24T08:27:12.085Z,29.93
2023-05-24T08:30:00.584Z,30.07
2023-05-24T08:32:52.544Z,30.23
2023-05-24T08:35:40.889Z,30.46
2023-05-24T08:38:29.698Z,30.62
2023-05-24T08:41:18.260Z,30.76
2023-05-24T08:44:09.676Z,30.82
2023-05-24T08:46:58.196Z,30.91
2023-05-24T08:49:46.805Z,30.88
2023-05-24T08:52:35.765Z,30.57
2023-05-24T08:55:24.500Z,30.31
2023-05-24T08:58:13.170Z,30.33
2023-05-24T09:01:02.482Z,30.59
2023-05-24T09:03:51.635Z,30.97
2023-05-24T09:06:40.299Z,31.10
2023-05-24T09:09:29.425Z,31.00
2023-05-24T09:12:35.377Z,30.77
2023-05-24T09:15:26.227Z,30.77
2023-05-24T09:18:14.599Z,30.84
2023-05-24T09:21:03.088Z,31.04
2023-05-24T09:23:51.682Z,31.08
2023-05-24T09:26:40.323Z,30.98
2023-05-24T09:29:29.075Z,30.92
2023-05-24T09:32:18.444Z,30.85
2023-05-24T09:35:10.970Z,30.66
2023-05-24T09:38:02.304Z,30.65
2023-05-24T09:40:59.644Z,30.79
2023-05-24T09:43:49.949Z,30.87
2023-05-24T09:46:38.868Z,30.87
2023-05-24T09:49:27.554Z,31.09
2023-05-24T09:52:16.712Z,31.22
2023-05-24T09:55:15.440Z,31.17
2023-05-24T09:58:08.649Z,31.16
2023-05-24T10:01:05.258Z,31.12
2023-05-24T10:03:58.458Z,31.04
2023-05-24T10:06:48.754Z,31.13
2023-05-24T10:09:37.440Z,31.29
2023-05-24T10:12:25.966Z,31.26
2023-05-24T10:15:14.672Z,31.27
2023-05-24T10:18:10.680Z,31.39
2023-05-24T10:21:01.915Z,31.61
2023-05-24T10:23:52.186Z,31.58
2023-05-24T10:26:40.944Z,31.45
2023-05-24T10:29:46.054Z,31.37
2023-05-24T10:32:34.972Z,31.23
2023-05-24T10:35:23.619Z,31.16
2023-05-24T10:38:12.201Z,31.19
2023-05-24T10:41:00.920Z,31.10
2023-05-24T10:44:07.311Z,31.09
2023-05-24T10:47:10.664Z,31.26
2023-05-24T10:50:06.829Z,31.48
2023-05-24T10:53:23.416Z,31.54
2023-05-24T10:56:13.929Z,31.60
2023-05-24T10:59:06.360Z,31.63
2023-05-24T11:01:58.793Z,31.70
2023-05-24T11:04:47.878Z,31.87
2023-05-24T11:07:43.084Z,32.04
2023-05-24T11:10:31.777Z,32.20
2023-05-24T11:13:21.184Z,32.22
2023-05-24T11:16:09.826Z,32.20
2023-05-24T11:18:58.437Z,32.20
2023-05-24T11:21:48.285Z,32.30
2023-05-24T11:24:37.697Z,32.39
2023-05-24T11:27:26.292Z,32.64
2023-05-24T11:30:15.936Z,32.87
2023-05-24T11:33:04.517Z,33.04
2023-05-24T11:35:54.703Z,33.17
2023-05-24T11:38:42.950Z,33.22
2023-05-24T11:41:31.610Z,33.41
2023-05-24T11:44:20.250Z,33.49
2023-05-24T11:47:09.016Z,33.28
2023-05-24T11:49:57.620Z,33.04
2023-05-24T11:52:46.309Z,32.87
2023-05-24T11:55:35.215Z,32.74
2023-05-24T11:58:25.209Z,32.57
2023-05-24T12:01:27.692Z,32.42
2023-05-24T12:04:16.552Z,32.21
2023-05-24T12:07:05.896Z,32.13
2023-05-24T12:09:54.496Z,32.04
2023-05-24T12:12:47.144Z,31.85
2023-05-24T12:15:35.874Z,31.77
2023-05-24T12:18:26.617Z,31.67
2023-05-24T12:21:14.972Z,31.59
2023-05-24T12:24:23.309Z,31.52
2023-05-24T12:27:12.030Z,31.62
2023-05-24T12:30:07.114Z,31.76
2023-05-24T12:32:55.868Z,31.87
2023-05-24T12:35:44.455Z,31.90
2023-05-24T12:38:33.192Z,31.92
2023-05-24T12:41:21.865Z,31.92
2023-05-24T12:44:11.893Z,31.92
2023-05-24T12:47:01.672Z,31.83
2023-05-24T12:49:50.919Z,31.72
2023-05-24T12:52:39.474Z,31.71
2023-05-24T12:55:28.397Z,31.65
2023-05-24T12:58:17.579Z,31.73
2023-05-24T13:01:06.243Z,31.78
2023-05-24T13:03:54.769Z,31.73
2023-05-24T13:06:43.844Z,31.56
2023-05-24T13:13:35.750Z,31.57
2023-05-24T13:16:24.420Z,31.66
2023-05-24T13:19:13.055Z,31.65
2023-05-24T13:22:01.747Z,31.67
2023-05-24T13:24:50.318Z,31.81
2023-05-24T13:27:38.882Z,32.00
2023-05-24T13:30:28.466Z,32.44
2023-05-24T13:33:17.039Z,33.29
2023-05-24T13:36:05.821Z,34.13
2023-05-24T13:39:12.854Z,34.85
2023-05-24T13:42:03.203Z,35.51
2023-05-24T13:44:51.928Z,35.96
2023-05-24T13:47:41.507Z,36.12
2023-05-24T13:50:32.237Z,36.10
2023-05-24T13:53:22.458Z,36.02
2023-05-24T13:56:11.127Z,35.92
2023-05-24T13:59:03.742Z,35.78
2023-05-24T14:01:52.039Z,35.43
2023-05-24T14:04:40.968Z,34.66
2023-05-24T14:07:29.740Z,33.72
2023-05-24T14:10:20.915Z,32.86
2023-05-24T14:16:01.782Z,32.11
2023-05-24T14:18:51.858Z,31.98
2023-05-24T14:21:41.556Z,31.72
2023-05-24T14:24:30.182Z,31.56
2023-05-24T14:27:18.757Z,31.58
2023-05-24T14:30:08.359Z,31.60
2023-05-24T14:32:56.975Z,31.56
2023-05-24T14:35:46.609Z,31.31
2023-05-24T14:38:35.650Z,30.95
2023-05-24T14:41:24.204Z,30.63
2023-05-24T14:44:12.860Z,30.32
2023-05-24T14:47:01.550Z,29.98
2023-05-24T14:49:50.408Z,29.76
2023-05-24T14:52:39.266Z,29.51
2023-05-24T14:55:28.053Z,29.21
2023-05-24T14:58:16.929Z,28.89
2023-05-24T15:01:06.996Z,28.58
2023-05-24T15:03:55.667Z,28.40
2023-05-24T15:06:44.248Z,28.27
2023-05-24T15:09:32.837Z,28.18
2023-05-24T15:12:22.513Z,28.07
2023-05-24T15:15:11.411Z,27.97
2023-05-24T15:18:00.243Z,27.89
2023-05-24T15:20:49.292Z,27.73
2023-05-24T15:23:38.064Z,27.57
2023-05-24T15:26:27.288Z,27.51
2023-05-24T15:29:16.949Z,27.35
2023-05-24T15:32:05.357Z,27.19
2023-05-24T15:34:53.977Z,27.12
2023-05-24T15:37:42.811Z,27.10
2023-05-24T15:40:31.447Z,27.08
2023-05-24T15:43:20.221Z,27.10
2023-05-24T15:46:08.835Z,27.06
2023-05-24T15:48:57.483Z,26.98
2023-05-24T15:52:03.687Z,26.96
2023-05-24T15:54:53.513Z,26.95
2023-05-24T15:57:42.303Z,26.92
2023-05-24T16:00:30.912Z,26.70
2023-05-24T16:03:20.292Z,26.56
2023-05-24T16:06:08.605Z,26.45
2023-05-24T16:08:57.287Z,26.24
2023-05-24T16:11:47.597Z,26.07
2023-05-24T16:14:36.782Z,25.99
2023-05-24T16:17:25.010Z,25.91
2023-05-24T16:20:13.757Z,25.77
2023-05-24T16:23:03.805Z,25.74
2023-05-24T16:25:52.638Z,25.72
2023-05-24T16:28:41.254Z,25.69
2023-05-24T16:31:31.070Z,25.67
2023-05-24T16:34:19.652Z,25.62
2023-05-24T16:37:08.645Z,25.60
2023-05-24T16:39:57.373Z,25.60
2023-05-24T16:42:46.666Z,25.57
2023-05-24T16:45:35.250Z,25.52
2023-05-24T16:48:28.713Z,25.46
2023-05-24T16:51:17.798Z,25.38
2023-05-24T16:54:08.607Z,25.23
2023-05-24T16:56:57.618Z,25.22
2023-05-24T16:59:47.357Z,25.10
2023-05-24T17:02:37.376Z,24.99
2023-05-24T17:05:26.095Z,24.88
2023-05-24T17:08:14.580Z,24.80
2023-05-24T17:11:04.143Z,24.60
2023-05-24T17:13:52.464Z,24.46
2023-05-24T17:16:41.161Z,24.29
2023-05-24T17:19:29.843Z,24.16
2023-05-24T17:22:18.488Z,24.00
2023-05-24T17:25:07.868Z,23.87
2023-05-24T17:27:56.496Z,23.85
2023-05-24T17:30:45.278Z,23.78
2023-05-24T17:33:33.880Z,23.60
2023-05-24T17:36:22.361Z,23.33
2023-05-24T17:39:11.329Z,23.07
2023-05-24T17:42:00.238Z,22.96
2023-05-24T17:44:49.087Z,22.93
2023-05-24T17:47:37.651Z,22.78
2023-05-24T17:50:26.591Z,22.70
2023-05-24T17:53:30.380Z,22.69
2023-05-24T17:56:22.547Z,22.66
2023-05-24T17:59:11.341Z,22.57
2023-05-24T18:01:59.998Z,22.49
2023-05-24T18:04:48.690Z,22.44
2023-05-24T18:07:37.452Z,22.44
2023-05-24T18:10:26.644Z,22.48
2023-05-24T18:13:15.188Z,22.41
2023-05-24T18:16:03.679Z,22.27
2023-05-24T18:18:52.569Z,22.14
2023-05-24T18:21:41.180Z,22.01
2023-05-24T18:24:29.903Z,21.94
2023-05-24T18:27:18.514Z,21.93
2023-05-24T18:30:08.122Z,21.79
2023-05-24T18:33:06.898Z,21.77
2023-05-24T18:35:56.727Z,21.60
2023-05-24T18:38:47.479Z,21.47
2023-05-24T18:41:36.028Z,21.38
2023-05-24T18:44:24.752Z,21.33
2023-05-24T18:47:13.470Z,21.27
2023-05-24T18:50:02.013Z,21.27
2023-05-24T18:52:50.699Z,21.19
2023-05-24T18:55:39.245Z,21.14
2023-05-24T18:58:31.109Z,21.05
2023-05-24T19:01:19.695Z,20.94
2023-05-24T19:04:08.550Z,20.73
2023-05-24T19:06:57.113Z,20.61
2023-05-24T19:09:45.789Z,20.53
2023-05-24T19:12:34.513Z,20.44
2023-05-24T19:15:25.036Z,20.39
2023-05-24T19:18:13.554Z,20.29
2023-05-24T19:21:02.235Z,20.15
2023-05-24T19:23:51.335Z,20.08
2023-05-24T19:26:39.962Z,20.04
2023-05-24T19:29:28.652Z,20.01
2023-05-24T19:32:17.565Z,19.94
2023-05-24T19:35:07.060Z,19.87
2023-05-24T19:37:55.750Z,19.80
2023-05-24T19:40:44.446Z,19.79
2023-05-24T19:43:33.029Z,19.75
2023-05-24T19:46:23.145Z,19.72
2023-05-24T19:49:12.557Z,19.74
2023-05-24T19:52:01.216Z,19.68
2023-05-24T19:54:49.869Z,19.65
2023-05-24T19:57:38.423Z,19.52
2023-05-24T20:00:27.281Z,19.48
2023-05-24T20:03:15.952Z,19.43
2023-05-24T20:06:04.719Z,19.35
2023-05-24T20:08:56.788Z,19.30
2023-05-24T20:11:49.203Z,19.28
2023-05-24T20:14:37.957Z,19.24
2023-05-24T20:17:26.680Z,19.16
2023-05-24T20:20:15.433Z,19.09
2023-05-24T20:23:04.052Z,19.07
2023-05-24T20:25:52.569Z,18.99
2023-05-24T20:28:41.155Z,18.97
2023-05-24T20:31:29.953Z,18.94
2023-05-24T20:34:18.672Z,18.91
2023-05-24T20:37:07.230Z,18.83
2023-05-24T20:39:55.964Z,18.79
2023-05-24T20:42:44.480Z,18.74
2023-05-24T20:45:33.439Z,18.69
2023-05-24T20:48:23.436Z,18.63
2023-05-24T20:51:12.233Z,18.56
2023-05-24T20:54:00.799Z,18.50
2023-05-24T20:56:49.379Z,18.48
2023-05-24T20:59:37.978Z,18.43
2023-05-24T21:02:28.675Z,18.34
2023-05-24T21:05:16.998Z,18.23
2023-05-24T21:08:05.916Z,18.19
2023-05-24T21:10:56.818Z,18.10
2023-05-24T21:13:46.061Z,18.13
2023-05-24T21:16:34.773Z,18.06
2023-05-24T21:19:23.361Z,18.02
2023-05-24T21:22:11.899Z,18.03
2023-05-24T21:25:00.638Z,17.96
2023-05-24T21:27:49.805Z,17.92
2023-05-24T21:30:38.425Z,17.91
2023-05-24T21:33:27.029Z,17.86
2023-05-24T21:36:15.757Z,17.86
2023-05-24T21:39:08.279Z,17.85
2023-05-24T21:41:56.807Z,17.86
2023-05-24T21:44:45.439Z,17.98
2023-05-24T21:47:35.771Z,17.94
2023-05-24T21:50:24.475Z,17.89
2023-05-24T21:53:13.286Z,17.86
2023-05-24T21:56:02.820Z,17.88
2023-05-24T21:58:51.440Z,17.94
2023-05-24T22:01:40.016Z,17.90
2023-05-24T22:04:28.788Z,17.76
2023-05-24T22:07:17.221Z,17.61
2023-05-24T22:10:06.566Z,17.57
2023-05-24T22:12:55.050Z,17.64
2023-05-24T22:15:44.007Z,17.62
2023-05-24T22:18:32.767Z,17.69
2023-05-24T22:21:22.920Z,17.66
2023-05-24T22:24:12.733Z,17.65
2023-05-24T22:27:02.661Z,17.62
2023-05-24T22:29:51.384Z,17.62
2023-05-24T22:32:40.183Z,17.59
2023-05-24T22:35:29.200Z,17.56
2023-05-24T22:38:17.827Z,17.52
2023-05-24T22:41:06.625Z,17.52
2023-05-24T22:43:55.953Z,17.55
2023-05-24T22:46:44.654Z,17.62
2023-05-24T22:49:34.370Z,17.54
2023-05-24T22:52:24.895Z,17.61
2023-05-24T22:55:13.838Z,17.60
2023-05-24T22:58:02.426Z,17.61
2023-05-24T23:00:51.601Z,17.62
2023-05-24T23:03:40.282Z,17.56
2023-05-24T23:06:31.764Z,17.56
2023-05-24T23:09:29.258Z,17.51
2023-05-24T23:12:18.749Z,17.47
2023-05-24T23:15:08.882Z,17.49
2023-05-24T23:17:58.425Z,17.51
2023-05-24T23:20:47.208Z,17.48
2023-05-24T23:23:37.856Z,17.51
2023-05-24T23:26:26.951Z,17.48
2023-05-24T23:29:15.808Z,17.42
2023-05-24T23:32:05.225Z,17.46
2023-05-24T23:34:53.825Z,17.58
2023-05-24T23:37:42.472Z,17.71
2023-05-24T23:40:31.159Z,17.73
2023-05-24T23:43:19.720Z,17.79
2023-05-24T23:46:08.393Z,17.85
2023-05-24T23:48:56.957Z,17.87
2023-05-24T23:51:45.589Z,17.95
2023-05-24T23:54:34.194Z,17.95
2023-05-24T23:57:25.139Z,17.93
